DENIK EDRM-EDGS
Flight info
| Callsign | DENIK |
|---|---|
| Flight time | 0h 28m |
| Altitude | 9000 |
| Route | VFR |
| Aircraft | BT36/L-BDFGLORY/S |
Departure
| Time | 2026-05-04 17:14 |
|---|---|
| Airport | Traben-Trarbach/Mont Royal Airfield (EDRM) |
Arrival
| Time | 2026-05-04 17:42 |
|---|---|
| Airport | Siegerland Airport (EDGS) |
| Time | Latitude | Longitude | Altitude | Speed | Heading |
|---|---|---|---|---|---|
| 2026-05-04 17:07 | 49.97219 | 7.11210 | 913 ft | 0 kts | 204° |
| 2026-05-04 17:14 | 49.97056 | 7.11193 | 901 ft | 49 kts | 181° |
| 2026-05-04 17:14 | 49.96516 | 7.11183 | 1136 ft | 89 kts | 180° |
| 2026-05-04 17:14 | 49.95334 | 7.11653 | 2319 ft | 102 kts | 121° |
| 2026-05-04 17:15 | 49.95347 | 7.12898 | 2725 ft | 130 kts | 65° |
| 2026-05-04 17:15 | 49.97147 | 7.13798 | 3101 ft | 161 kts | 6° |
| 2026-05-04 17:16 | 49.99376 | 7.14986 | 3281 ft | 174 kts | 18° |
| 2026-05-04 17:16 | 50.02483 | 7.18096 | 3048 ft | 177 kts | 43° |
| 2026-05-04 17:17 | 50.03411 | 7.19413 | 2959 ft | 182 kts | 45° |
| 2026-05-04 17:17 | 50.06259 | 7.23161 | 2983 ft | 179 kts | 37° |
| 2026-05-04 17:18 | 50.07256 | 7.24330 | 3006 ft | 177 kts | 39° |
| 2026-05-04 17:18 | 50.07915 | 7.25112 | 3000 ft | 181 kts | 36° |
| 2026-05-04 17:19 | 50.09971 | 7.27767 | 3145 ft | 179 kts | 43° |
| 2026-05-04 17:19 | 50.11937 | 7.30468 | 2971 ft | 186 kts | 44° |
| 2026-05-04 17:20 | 50.13765 | 7.33245 | 2983 ft | 183 kts | 45° |
| 2026-05-04 17:20 | 50.15568 | 7.36016 | 2994 ft | 179 kts | 45° |
| 2026-05-04 17:20 | 50.16451 | 7.37374 | 2991 ft | 180 kts | 45° |
| 2026-05-04 17:21 | 50.18232 | 7.40118 | 2996 ft | 181 kts | 45° |
| 2026-05-04 17:21 | 50.20031 | 7.42886 | 2994 ft | 181 kts | 42° |
| 2026-05-04 17:22 | 50.21014 | 7.44099 | 2990 ft | 181 kts | 37° |
| 2026-05-04 17:22 | 50.22017 | 7.45294 | 2995 ft | 180 kts | 37° |
| 2026-05-04 17:23 | 50.25014 | 7.48883 | 2993 ft | 181 kts | 37° |
| 2026-05-04 17:23 | 50.26002 | 7.50070 | 2992 ft | 180 kts | 37° |
| 2026-05-04 17:23 | 50.27849 | 7.52727 | 2988 ft | 180 kts | 46° |
| 2026-05-04 17:24 | 50.28714 | 7.54118 | 2988 ft | 180 kts | 45° |
| 2026-05-04 17:24 | 50.31328 | 7.58312 | 2987 ft | 179 kts | 45° |
| 2026-05-04 17:25 | 50.32197 | 7.59707 | 2996 ft | 179 kts | 45° |
| 2026-05-04 17:25 | 50.33931 | 7.62516 | 2996 ft | 180 kts | 45° |
| 2026-05-04 17:26 | 50.35676 | 7.65351 | 2996 ft | 180 kts | 45° |
| 2026-05-04 17:26 | 50.38271 | 7.69578 | 2997 ft | 180 kts | 45° |
| 2026-05-04 17:27 | 50.40000 | 7.72413 | 2999 ft | 181 kts | 45° |
| 2026-05-04 17:27 | 50.41699 | 7.75209 | 2994 ft | 180 kts | 45° |
| 2026-05-04 17:28 | 50.43418 | 7.78031 | 2999 ft | 178 kts | 45° |
| 2026-05-04 17:29 | 50.46248 | 7.81806 | 3005 ft | 179 kts | 35° |
| 2026-05-04 17:29 | 50.49275 | 7.85343 | 3011 ft | 182 kts | 36° |
| 2026-05-04 17:30 | 50.52070 | 7.89316 | 3014 ft | 180 kts | 40° |
| 2026-05-04 17:31 | 50.53862 | 7.92056 | 2997 ft | 180 kts | 43° |
| 2026-05-04 17:31 | 50.56547 | 7.96232 | 2996 ft | 181 kts | 43° |
| 2026-05-04 17:32 | 50.58300 | 7.99047 | 2998 ft | 180 kts | 45° |
| 2026-05-04 17:33 | 50.60868 | 8.03328 | 2996 ft | 179 kts | 45° |
| 2026-05-04 17:33 | 50.61717 | 8.04748 | 2998 ft | 179 kts | 45° |
| 2026-05-04 17:34 | 50.64285 | 8.08946 | 3084 ft | 171 kts | 45° |
| 2026-05-04 17:34 | 50.64833 | 8.09843 | 3072 ft | 170 kts | 44° |
| 2026-05-04 17:35 | 50.66486 | 8.12503 | 3006 ft | 168 kts | 41° |
| 2026-05-04 17:35 | 50.67044 | 8.13330 | 3073 ft | 157 kts | 41° |
| 2026-05-04 17:35 | 50.67801 | 8.14417 | 3133 ft | 139 kts | 39° |
| 2026-05-04 17:36 | 50.68508 | 8.15344 | 3189 ft | 124 kts | 37° |
| 2026-05-04 17:36 | 50.69138 | 8.16114 | 3284 ft | 109 kts | 34° |
| 2026-05-04 17:36 | 50.69177 | 8.16160 | 3284 ft | 110 kts | 34° |
| 2026-05-04 17:36 | 50.69857 | 8.16669 | 3335 ft | 107 kts | 1° |
| 2026-05-04 17:37 | 50.70550 | 8.16280 | 3321 ft | 110 kts | 310° |
| 2026-05-04 17:37 | 50.71053 | 8.15352 | 3266 ft | 112 kts | 306° |
| 2026-05-04 17:37 | 50.71507 | 8.14365 | 3218 ft | 102 kts | 303° |
| 2026-05-04 17:37 | 50.71867 | 8.13506 | 3115 ft | 93 kts | 300° |
| 2026-05-04 17:38 | 50.72193 | 8.12609 | 2942 ft | 92 kts | 297° |
| 2026-05-04 17:38 | 50.72310 | 8.11664 | 2707 ft | 93 kts | 268° |
| 2026-05-04 17:38 | 50.72074 | 8.10729 | 2523 ft | 97 kts | 236° |
| 2026-05-04 17:38 | 50.71579 | 8.09979 | 2349 ft | 99 kts | 225° |
| 2026-05-04 17:39 | 50.70572 | 8.08605 | 1949 ft | 82 kts | 222° |
| 2026-05-04 17:39 | 50.70029 | 8.07982 | 2174 ft | 107 kts | 219° |
| 2026-05-04 17:39 | 50.69293 | 8.07685 | 2387 ft | 124 kts | 163° |
| 2026-05-04 17:40 | 50.68841 | 8.08668 | 2522 ft | 119 kts | 86° |
| 2026-05-04 17:40 | 50.69193 | 8.09727 | 2679 ft | 111 kts | 47° |
| 2026-05-04 17:40 | 50.69748 | 8.10582 | 2758 ft | 113 kts | 35° |
| 2026-05-04 17:40 | 50.70391 | 8.11343 | 2761 ft | 118 kts | 32° |
| 2026-05-04 17:41 | 50.71058 | 8.12064 | 2788 ft | 116 kts | 31° |
| 2026-05-04 17:41 | 50.71805 | 8.12246 | 2807 ft | 112 kts | 338° |
| 2026-05-04 17:41 | 50.72270 | 8.11461 | 2672 ft | 98 kts | 280° |
| 2026-05-04 17:41 | 50.72055 | 8.10473 | 2406 ft | 98 kts | 231° |
| 2026-05-04 17:42 | 50.71529 | 8.09817 | 2245 ft | 94 kts | 220° |
| 2026-05-04 17:42 | 50.71037 | 8.09202 | 2095 ft | 89 kts | 222° |
| 2026-05-04 17:42 | 50.70597 | 8.08636 | 1941 ft | 65 kts | 219° |
| 2026-05-04 17:42 | 50.70426 | 8.08433 | 1939 ft | 7 kts | 208° |
| 2026-05-04 17:43 | 50.70425 | 8.08415 | 1939 ft | 2 kts | 9° |
| 2026-05-04 17:43 | 50.70427 | 8.08416 | 1937 ft | 0 kts | 21° |
| 2026-05-04 17:43 | 50.70431 | 8.08419 | 1940 ft | 3 kts | 21° |
| 2026-05-04 17:43 | 50.70471 | 8.08438 | 1937 ft | 6 kts | 347° |
| 2026-05-04 17:44 | 50.70519 | 8.08368 | 1944 ft | 12 kts | 307° |
| 2026-05-04 17:44 | 50.70587 | 8.08232 | 1954 ft | 21 kts | 308° |
| 2026-05-04 17:44 | 50.70691 | 8.08023 | 1957 ft | 24 kts | 308° |
| 2026-05-04 17:44 | 50.70770 | 8.07854 | 1972 ft | 16 kts | 291° |
| 2026-05-04 17:45 | 50.70768 | 8.07748 | 1975 ft | 7 kts | 305° |
| 2026-05-04 17:45 | 50.70804 | 8.07738 | 1973 ft | 0 kts | 34° |